Flight Track Log - Related Links

Times and Time Zones

All times are in EDT time to prevent confusion due to time zone crossing. See the CRL925 flight status page for this flight to view local times or setup timezone preferences in your user account.

Time Position Orientation Groundspeed Altitude Reporting Facility
EDT Latitude Longitude Course Direction KTS MPH feet Rate Location/Type
Sun 08:13:17 PM 14.6660 -60.8720 38° Northeast 257 296 4,600  Level FlightAware ADS-B
Sun 08:13:37 PM 14.6880 -60.8540 38° Northeast 266 306 5,700 2,836 Climbing FlightAware ADS-B
Sun 08:14:12 PM 14.7210 -60.8260 39° Northeast 275 316 7,200 2,880 Climbing FlightAware ADS-B
Sun 08:14:52 PM 14.7640 -60.7900 39° Northeast 284 327 9,300 2,625 Climbing FlightAware ADS-B
Sun 08:15:32 PM 14.8090 -60.7520 39° Northeast 310 357 10,700 1,482 Climbing FlightAware ADS-B
Sun 08:16:17 PM 14.8600 -60.7090 39° Northeast 361 415 11,400 1,624 Climbing FlightAware ADS-B
Sun 08:16:57 PM 14.9120 -60.6640 40° Northeast 382 440 13,000 2,471 Climbing FlightAware ADS-B
Sun 08:17:42 PM 14.9790 -60.6080 39° Northeast 405 466 14,900 2,612 Climbing FlightAware ADS-B
Sun 08:18:22 PM 15.0390 -60.5570 39° Northeast 419 482 16,700 2,775 Climbing FlightAware ADS-B
Sun 08:19:02 PM 15.1010 -60.5040 40° Northeast 429 494 18,600 2,541 Climbing FlightAware ADS-B
Sun 08:19:47 PM 15.1710 -60.4450 39° Northeast 441 507 20,300 2,188 Climbing FlightAware ADS-B
Sun 08:20:27 PM 15.2360 -60.3910 39° Northeast 454 522 21,700 2,047 Climbing FlightAware ADS-B
Sun 08:21:12 PM 15.3110 -60.3260 40° Northeast 466 536 23,200 2,025 Climbing FlightAware ADS-B
Sun 08:21:47 PM 15.3700 -60.2760 39° Northeast 473 544 24,400 1,800 Climbing FlightAware ADS-B
Sun 08:22:32 PM 15.4420 -60.2150 39° Northeast 486 559 25,600 1,835 Climbing FlightAware ADS-B
Sun 08:23:12 PM 15.5110 -60.1560 39° Northeast 487 560 27,000 1,835 Climbing FlightAware ADS-B
Sun 08:23:57 PM 15.5900 -60.0890 39° Northeast 495 570 28,200 1,200 Climbing FlightAware ADS-B
Sun 08:24:42 PM 15.6720 -60.0200 39° Northeast 519 597 28,800 975 Climbing FlightAware ADS-B
Sun 08:25:17 PM 15.7380 -59.9630 40° Northeast 530 610 29,500 1,275 Climbing FlightAware ADS-B
Sun 08:26:02 PM 15.8220 -59.8910 40° Northeast 538 619 30,500 1,400 Climbing FlightAware ADS-B
Sun 08:26:47 PM 15.9090 -59.8160 40° Northeast 544 626 31,600 1,575 Climbing FlightAware ADS-B
Sun 08:27:22 PM 15.9820 -59.7540 39° Northeast 546 628 32,600 1,360 Climbing FlightAware ADS-B
Sun 08:28:02 PM 16.0580 -59.6890 39° Northeast 554 638 33,300 1,267 Climbing FlightAware ADS-B
Sun 08:28:52 PM 16.1550 -59.6050 40° Northeast 552 635 34,500 1,467 Climbing FlightAware ADS-B
Sun 08:29:32 PM 16.2320 -59.5390 39° Northeast 546 628 35,500 1,125 Climbing FlightAware ADS-B
Sun 08:30:12 PM 16.3070 -59.4750 39° Northeast 545 627 36,000 353 Climbing FlightAware ADS-B
Sun 08:30:57 PM 16.4010 -59.3940 40° Northeast 543 625 36,000  Level FlightAware ADS-B
Sun 08:31:42 PM 16.4860 -59.3200 40° Northeast 543 625 36,000  Level FlightAware ADS-B
Sun 08:32:17 PM 16.5570 -59.2590 39° Northeast 544 626 36,000  Level FlightAware ADS-B
Sun 08:33:02 PM 16.6340 -59.1930 39° Northeast 546 628 36,000  Level FlightAware ADS-B
Sun 08:33:47 PM 16.7380 -59.1030 40° Northeast 548 631 36,000  Level FlightAware ADS-B
Sun 08:34:42 PM 16.8220 -59.0310 39° Northeast 550 633 36,000  Level FlightAware ADS-B
Sun 08:35:37 PM 16.9420 -58.9260 40° Northeast 553 636 36,000  Level FlightAware ADS-B
Sun 08:36:12 PM 17.0230 -58.8560 40° Northeast 553 636 36,000  Level FlightAware ADS-B
Sun 08:37:02 PM 17.1090 -58.7800 40° Northeast 554 638 36,000  Level FlightAware ADS-B
Sun 08:37:42 PM 17.1760 -58.7210 40° Northeast 554 638 36,000  Level FlightAware ADS-B
Sun 08:38:22 PM 17.2430 -58.6630 40° Northeast 554 638 36,000  Level FlightAware ADS-B
Sun 08:39:02 PM 17.3090 -58.6040 40° Northeast 554 638 36,000  Level FlightAware ADS-B
Sun 08:39:42 PM 17.3760 -58.5450 40° Northeast 554 638 36,000  Level FlightAware ADS-B
Sun 08:40:32 PM 17.4600 -58.4720 40° Northeast 554 638 36,000  Level FlightAware ADS-B
Sun 08:41:12 PM 17.5260 -58.4130 40° Northeast 554 638 36,000  Level FlightAware ADS-B
Sun 08:41:52 PM 17.5930 -58.3550 40° Northeast 554 638 36,000  Level FlightAware ADS-B
Sun 08:42:32 PM 17.6600 -58.2960 40° Northeast 554 638 36,000  Level FlightAware ADS-B
Sun 08:44:08 PM 17.9333 -58.0667 44° Northeast 576 663 36,000  Level New York Oceanic (ODAPS)
Sun 08:44:30 PM 17.8570 -58.1220 40° Northeast 554 638 36,000  Level FlightAware ADS-B
Sun 08:44:36 PM 18.0000 -58.0000 55° Northeast 564 649 36,000  Level New York Oceanic (ODAPS)
Sun 08:45:10 PM 17.9240 -58.0630 40° Northeast 554 638 36,000  Level FlightAware ADS-B
Sun 08:45:50 PM 17.9900 -58.0040 40° Northeast 554 638 36,000  Level FlightAware ADS-B
Sun 08:46:30 PM 18.0570 -57.9460 39° Northeast 554 638 36,000  Level FlightAware ADS-B
Sun 08:49:00 PM 18.2409 -57.6494 57° Northeast  Level FlightAware Approximate
Sun 08:50:00 PM 18.5158 -57.2227 55° Northeast 576 663 36,000  Level FlightAware Transoceanic
Sun 08:51:00 PM 18.6221 -57.0613 55° Northeast 564 649 36,000  Level FlightAware Transoceanic
Sun 08:52:00 PM 18.7106 -56.9267 55° Northeast 564 649 36,000  Level FlightAware Transoceanic
Sun 08:52:30 PM 18.7333 -56.9000 55° Northeast 558 642 36,000  Level New York Oceanic (ODAPS)
Sun 08:53:00 PM 18.7990 -56.7919 55° Northeast 564 649 36,000  Level FlightAware Transoceanic
Sun 08:54:00 PM 18.8873 -56.6570 55° Northeast 564 649 36,000  Level FlightAware Transoceanic
Sun 08:55:00 PM 18.9755 -56.5219 55° Northeast 564 649 36,000  Level FlightAware Transoceanic
Sun 08:56:00 PM 19.0636 -56.3867 55° Northeast 564 649 36,000  Level FlightAware Transoceanic
Sun 08:57:00 PM 19.1516 -56.2513 55° Northeast 564 649 36,000  Level FlightAware Transoceanic
Sun 08:58:00 PM 19.2594 -56.0922 56° Northeast 558 642 36,000  Level FlightAware Transoceanic
Sun 08:59:00 PM 19.3468 -55.9570 56° Northeast 558 642 36,000  Level FlightAware Transoceanic
Sun 09:00:00 PM 19.4340 -55.8217 56° Northeast 558 642 36,000  Level FlightAware Transoceanic
Sun 09:01:00 PM 19.5212 -55.6863 56° Northeast 558 642 36,000  Level FlightAware Transoceanic
Sun 09:02:00 PM 19.6082 -55.5507 56° Northeast 558 642 36,000  Level FlightAware Transoceanic
Sun 09:03:00 PM 19.6951 -55.4150 56° Northeast 558 642 36,000  Level FlightAware Transoceanic
Sun 09:04:00 PM 19.7820 -55.2791 56° Northeast 558 642 36,000  Level FlightAware Transoceanic
Sun 09:04:17 PM 19.4167 -55.8333 56° Northeast 558 642 36,000 1,297 Level New York Oceanic (ODAPS)
Sun 09:04:37 PM 19.8167 -55.2167 56° Northeast 551 634 36,800  Climbing New York Oceanic (ODAPS)
Sun 09:05:00 PM 19.8687 -55.1431 56° Northeast 558 642 36,000 -578 Descending FlightAware Transoceanic
Sun 09:06:00 PM 19.9553 -55.0069 56° Northeast 558 642 36,000  Level FlightAware Transoceanic
Sun 09:07:00 PM 20.0419 -54.8706 56° Northeast 558 642 36,000  Level FlightAware Transoceanic
Sun 09:08:00 PM 20.1283 -54.7341 56° Northeast 558 642 36,000  Level FlightAware Transoceanic
Sun 09:09:00 PM 20.2146 -54.5975 56° Northeast 558 642 36,000 400 Level FlightAware Transoceanic
Sun 09:10:00 PM 20.3298 -54.4078 56° Northeast 551 634 36,800 400 Climbing FlightAware Transoceanic
Sun 09:11:00 PM 20.4149 -54.2725 56° Northeast 551 634 36,800  Level FlightAware Transoceanic
Sun 09:12:00 PM 20.5000 -54.1370 56° Northeast 551 634 36,800 114 Level FlightAware Transoceanic
Sun 09:12:45 PM 20.5333 -54.0833 56° Northeast 559 643 37,000  Climbing New York Oceanic (ODAPS)
Sun 09:13:00 PM 20.5849 -54.0014 56° Northeast 551 634 36,800 -160 Descending FlightAware Transoceanic
Sun 09:14:00 PM 20.6698 -53.8656 56° Northeast 551 634 36,800  Level FlightAware Transoceanic
Sun 09:15:00 PM 20.7545 -53.7297 56° Northeast 551 634 36,800  Level FlightAware Transoceanic
Sun 09:16:00 PM 20.8392 -53.5936 56° Northeast 551 634 36,800  Level FlightAware Transoceanic
Sun 09:17:00 PM 20.9237 -53.4574 56° Northeast 551 634 36,800  Level FlightAware Transoceanic
Sun 09:18:00 PM 21.0081 -53.3210 56° Northeast 551 634 36,800 100 Level FlightAware Transoceanic
Sun 09:19:00 PM 21.0518 -53.2499 57° Northeast 559 643 37,000 100 Climbing FlightAware Transoceanic
Sun 09:20:00 PM 21.1378 -53.1104 57° Northeast 559 643 37,000  Level FlightAware Transoceanic
Sun 09:21:00 PM 21.2237 -52.9708 57° Northeast 559 643 37,000  Level FlightAware Transoceanic
Sun 09:22:00 PM 21.3095 -52.8310 57° Northeast 559 643 37,000  Level FlightAware Transoceanic
Sun 09:23:00 PM 21.3951 -52.6911 57° Northeast 559 643 37,000  Level FlightAware Transoceanic
Sun 09:24:00 PM 21.4807 -52.5509 57° Northeast 559 643 37,000  Level FlightAware Transoceanic
Sun 09:25:00 PM 21.5661 -52.4107 57° Northeast 559 643 37,000  Level FlightAware Transoceanic
Sun 09:26:00 PM 21.6514 -52.2702 57° Northeast 559 643 37,000  Level FlightAware Transoceanic
Sun 09:27:00 PM 21.7366 -52.1296 57° Northeast 559 643 37,000  Level FlightAware Transoceanic
Sun 09:28:00 PM 21.8217 -51.9888 57° Northeast 559 643 37,000  Level FlightAware Transoceanic
Sun 09:29:00 PM 21.9067 -51.8479 57° Northeast 559 643 37,000  Level FlightAware Transoceanic
Sun 09:30:00 PM 21.9915 -51.7067 57° Northeast 559 643 37,000  Level FlightAware Transoceanic
Sun 09:31:00 PM 22.0763 -51.5655 57° Northeast 559 643 37,000  Level FlightAware Transoceanic
Sun 09:32:00 PM 22.1608 -51.4240 57° Northeast 559 643 37,000  Level FlightAware Transoceanic
Sun 09:33:00 PM 22.2453 -51.2824 57° Northeast 559 643 37,000  Level FlightAware Transoceanic
Sun 09:33:00 PM 22.2167 -51.3333 57° Northeast 514 592 37,000  Level New York Oceanic (ODAPS)
Sun 09:34:00 PM 22.3297 -51.1406 57° Northeast 559 643 37,000  Level FlightAware Transoceanic
Sun 09:35:00 PM 22.4139 -50.9986 57° Northeast 559 643 37,000  Level FlightAware Transoceanic
Sun 09:36:00 PM 22.4980 -50.8565 57° Northeast 559 643 37,000  Level FlightAware Transoceanic
Sun 09:37:00 PM 22.5820 -50.7142 57° Northeast 559 643 37,000  Level FlightAware Transoceanic
Sun 09:38:00 PM 22.6658 -50.5717 58° Northeast 559 643 37,000  Level FlightAware Transoceanic
Sun 09:39:00 PM 22.6880 -50.5352 58° Northeast 514 592 37,000  Level FlightAware Transoceanic
Sun 09:40:00 PM 22.7662 -50.4016 58° Northeast 514 592 37,000  Level FlightAware Transoceanic
Sun 09:41:00 PM 22.8442 -50.2679 58° Northeast 514 592 37,000  Level FlightAware Transoceanic
Sun 09:42:00 PM 22.9222 -50.1340 58° Northeast 514 592 37,000  Level FlightAware Transoceanic
Sun 09:43:00 PM 23.0000 -50.0000 59° Northeast 514 592 37,000  Level FlightAware Transoceanic
Sun 09:43:26 PM 23.0000 -50.0000 59° Northeast 527 606 37,000  Level New York Oceanic (ODAPS)
Sun 09:44:00 PM 23.0739 -49.8667 59° Northeast 514 592 37,000  Level FlightAware Transoceanic
Sun 09:45:00 PM 23.1476 -49.7332 59° Northeast 514 592 37,000  Level FlightAware Transoceanic
Sun 09:46:00 PM 23.2213 -49.5995 59° Northeast 514 592 37,000  Level FlightAware Transoceanic
Sun 09:47:00 PM 23.2948 -49.4658 59° Northeast 514 592 37,000  Level FlightAware Transoceanic
Sun 09:48:00 PM 23.3682 -49.3318 59° Northeast 514 592 37,000  Level FlightAware Transoceanic
Sun 09:49:00 PM 23.4541 -49.1748 59° Northeast 527 606 37,000  Level FlightAware Transoceanic
Sun 09:50:00 PM 23.5293 -49.0367 59° Northeast 527 606 37,000  Level FlightAware Transoceanic
Sun 09:51:00 PM 23.6045 -48.8984 59° Northeast 527 606 37,000  Level FlightAware Transoceanic
Sun 09:52:00 PM 23.6795 -48.7600 59° Northeast 527 606 37,000  Level FlightAware Transoceanic
Sun 09:53:00 PM 23.7544 -48.6215 59° Northeast 527 606 37,000  Level FlightAware Transoceanic
Sun 09:53:15 PM 23.7667 -48.6000 59° Northeast 522 601 37,000  Level New York Oceanic (ODAPS)
Sun 09:54:00 PM 23.8291 -48.4827 60° Northeast 527 606 37,000  Level FlightAware Transoceanic
Sun 09:55:00 PM 23.9038 -48.3439 60° Northeast 527 606 37,000  Level FlightAware Transoceanic
Sun 09:56:00 PM 23.9783 -48.2048 60° Northeast 527 606 37,000  Level FlightAware Transoceanic
Sun 09:57:00 PM 24.0527 -48.0656 60° Northeast 527 606 37,000  Level FlightAware Transoceanic
Sun 09:58:00 PM 24.1270 -47.9263 60° Northeast 527 606 37,000  Level FlightAware Transoceanic
Sun 09:59:00 PM 24.2048 -47.7810 60° Northeast 522 601 37,000  Level FlightAware Transoceanic
Sun 10:00:00 PM 24.2774 -47.6439 60° Northeast 522 601 37,000  Level FlightAware Transoceanic
Sun 10:01:00 PM 24.3499 -47.5067 60° Northeast 522 601 37,000  Level FlightAware Transoceanic
Sun 10:02:00 PM 24.4222 -47.3694 60° Northeast 522 601 37,000  Level FlightAware Transoceanic
Sun 10:03:00 PM 24.4944 -47.2318 60° Northeast 522 601 37,000  Level FlightAware Transoceanic
Sun 10:04:00 PM 24.5665 -47.0942 60° Northeast 522 601 37,000  Level FlightAware Transoceanic
Sun 10:05:00 PM 24.6385 -46.9563 60° Northeast 522 601 37,000  Level FlightAware Transoceanic
Sun 10:06:00 PM 24.7104 -46.8183 60° Northeast 522 601 37,000  Level FlightAware Transoceanic
Sun 10:07:00 PM 24.7821 -46.6802 60° Northeast 522 601 37,000  Level FlightAware Transoceanic
Sun 10:08:00 PM 24.8537 -46.5419 60° Northeast 522 601 37,000  Level FlightAware Transoceanic
Sun 10:09:00 PM 24.9252 -46.4034 60° Northeast 522 601 37,000  Level FlightAware Transoceanic
Sun 10:10:00 PM 24.9965 -46.2647 60° Northeast 522 601 37,000  Level FlightAware Transoceanic
Sun 10:11:00 PM 25.0677 -46.1259 61° Northeast 522 601 37,000  Level FlightAware Transoceanic
Sun 10:12:00 PM 25.1388 -45.9870 61° Northeast 522 601 37,000  Level FlightAware Transoceanic
Sun 10:13:00 PM 25.2098 -45.8479 61° Northeast 522 601 37,000  Level FlightAware Transoceanic
Sun 10:13:43 PM 25.3000 -45.6833 61° Northeast 526 605 37,000  Level New York Oceanic (ODAPS)
Sun 10:14:00 PM 25.2806 -45.7086 61° Northeast 522 601 37,000  Level FlightAware Transoceanic
Sun 10:15:00 PM 25.3513 -45.5691 61° Northeast 522 601 37,000  Level FlightAware Transoceanic
Sun 10:16:00 PM 25.4218 -45.4295 61° Northeast 522 601 37,000  Level FlightAware Transoceanic
Sun 10:17:00 PM 25.4923 -45.2898 61° Northeast 522 601 37,000  Level FlightAware Transoceanic
Sun 10:18:00 PM 25.5626 -45.1498 61° Northeast 522 601 37,000  Level FlightAware Transoceanic
Sun 10:19:00 PM 25.6327 -45.0097 61° Northeast 522 601 37,000  Level FlightAware Transoceanic
Sun 10:20:00 PM 25.7885 -44.7080 61° Northeast 526 605 37,000  Level FlightAware Transoceanic
Sun 10:21:00 PM 25.8578 -44.5680 61° Northeast 526 605 37,000  Level FlightAware Transoceanic
Sun 10:22:00 PM 25.9269 -44.4279 61° Northeast 526 605 37,000  Level FlightAware Transoceanic
Sun 10:23:00 PM 25.9959 -44.2876 61° Northeast 526 605 37,000  Level FlightAware Transoceanic
Sun 10:24:00 PM 26.0648 -44.1471 61° Northeast 526 605 37,000  Level FlightAware Transoceanic
Sun 10:25:00 PM 26.1335 -44.0064 61° Northeast 526 605 37,000  Level FlightAware Transoceanic
Sun 10:26:00 PM 26.2021 -43.8656 62° Northeast 526 605 37,000  Level FlightAware Transoceanic
Sun 10:27:00 PM 26.2705 -43.7247 62° Northeast 526 605 37,000  Level FlightAware Transoceanic
Sun 10:28:00 PM 26.3388 -43.5835 62° Northeast 526 605 37,000  Level FlightAware Transoceanic
Sun 10:29:00 PM 26.4070 -43.4422 62° Northeast 526 605 37,000  Level FlightAware Transoceanic
Sun 10:30:00 PM 26.4750 -43.3007 62° Northeast 526 605 37,000  Level FlightAware Transoceanic
Sun 10:31:00 PM 26.5429 -43.1591 62° Northeast 526 605 37,000  Level FlightAware Transoceanic
Sun 10:32:00 PM 26.6107 -43.0173 62° Northeast 526 605 37,000  Level FlightAware Transoceanic
Sun 10:33:00 PM 26.6783 -42.8753 62° Northeast 526 605 37,000  Level FlightAware Transoceanic
Sun 10:33:49 PM 26.7833 -42.6667 62° Northeast 533 613 37,000  Level New York Oceanic (ODAPS)
Sun 10:34:00 PM 26.7457 -42.7332 62° Northeast 526 605 37,000  Level FlightAware Transoceanic
Sun 10:35:00 PM 26.8131 -42.5908 62° Northeast 526 605 37,000  Level FlightAware Transoceanic
Sun 10:36:00 PM 26.8803 -42.4484 62° Northeast 526 605 37,000  Level FlightAware Transoceanic
Sun 10:37:00 PM 26.9473 -42.3057 62° Northeast 526 605 37,000  Level FlightAware Transoceanic
Sun 10:38:00 PM 27.0142 -42.1629 62° Northeast 526 605 37,000  Level FlightAware Transoceanic
Sun 10:39:00 PM 27.0809 -42.0199 62° Northeast 526 605 37,000  Level FlightAware Transoceanic
Sun 10:40:00 PM 27.1945 -41.7843 63° Northeast 533 613 37,000  Level FlightAware Transoceanic
Sun 10:41:00 PM 27.2625 -41.6366 63° Northeast 533 613 37,000  Level FlightAware Transoceanic
Sun 10:42:00 PM 27.3303 -41.4887 63° Northeast 533 613 37,000  Level FlightAware Transoceanic
Sun 10:43:00 PM 27.3980 -41.3407 63° Northeast 533 613 37,000  Level FlightAware Transoceanic
Sun 10:44:00 PM 27.4655 -41.1924 63° Northeast 533 613 37,000  Level FlightAware Transoceanic
Sun 10:45:00 PM 27.5329 -41.0440 63° Northeast 533 613 37,000  Level FlightAware Transoceanic
Sun 10:46:00 PM 27.6001 -40.8954 63° Northeast 533 613 37,000  Level FlightAware Transoceanic
Sun 10:47:00 PM 27.6672 -40.7466 63° Northeast 533 613 37,000  Level FlightAware Transoceanic
Sun 10:48:00 PM 27.7340 -40.5977 63° Northeast 533 613 37,000  Level FlightAware Transoceanic
Sun 10:49:00 PM 27.8008 -40.4485 63° Northeast 533 613 37,000  Level FlightAware Transoceanic
Sun 10:50:00 PM 27.8673 -40.2992 63° Northeast 533 613 37,000  Level FlightAware Transoceanic
Sun 10:51:00 PM 27.9338 -40.1497 63° Northeast 533 613 37,000  Level FlightAware Transoceanic
Sun 10:52:00 PM 28.0000 -40.0000 57° Northeast 533 613 37,000  Level FlightAware Transoceanic
Sun 10:53:00 PM 28.0777 -39.8623 57° Northeast 533 613 37,000  Level FlightAware Transoceanic
Sun 10:54:00 PM 28.1552 -39.7243 58° Northeast 533 613 37,000  Level FlightAware Transoceanic
Sun 10:55:00 PM 28.2326 -39.5861 58° Northeast 533 613 37,000  Level FlightAware Transoceanic
Sun 10:56:00 PM 28.3098 -39.4478 58° Northeast 533 613 37,000  Level FlightAware Transoceanic
Sun 10:57:00 PM 28.3869 -39.3092 58° Northeast 533 613 37,000  Level FlightAware Transoceanic
Sun 10:58:00 PM 28.4639 -39.1705 58° Northeast 533 613 37,000  Level FlightAware Transoceanic
Sun 10:59:00 PM 28.5407 -39.0315 58° Northeast 533 613 37,000  Level FlightAware Transoceanic
Sun 11:00:00 PM 28.6174 -38.8924 58° Northeast 533 613 37,000  Level FlightAware Transoceanic
Sun 11:01:00 PM 28.6939 -38.7530 58° Northeast 533 613 37,000  Level FlightAware Transoceanic
Sun 11:02:00 PM 28.7703 -38.6134 58° Northeast 533 613 37,000  Level FlightAware Transoceanic
Sun 11:03:00 PM 28.8466 -38.4737 58° Northeast 533 613 37,000  Level FlightAware Transoceanic
Sun 11:04:00 PM 28.9227 -38.3337 58° Northeast 533 613 37,000  Level FlightAware Transoceanic
Sun 11:05:00 PM 28.9987 -38.1935 58° Northeast 533 613 37,000  Level FlightAware Transoceanic
Sun 11:06:00 PM 29.0745 -38.0531 58° Northeast 533 613 37,000  Level FlightAware Transoceanic
Sun 11:07:00 PM 29.1502 -37.9125 58° Northeast 533 613 37,000  Level FlightAware Transoceanic
Sun 11:08:00 PM 29.2257 -37.7717 58° Northeast 533 613 37,000  Level FlightAware Transoceanic
Sun 11:09:00 PM 29.3011 -37.6307 59° Northeast 533 613 37,000  Level FlightAware Transoceanic
Sun 11:10:00 PM 29.3763 -37.4895 59° Northeast 533 613 37,000  Level FlightAware Transoceanic
Sun 11:11:00 PM 29.4514 -37.3481 59° Northeast 533 613 37,000  Level FlightAware Transoceanic
Sun 11:12:00 PM 29.5263 -37.2065 59° Northeast 533 613 37,000  Level FlightAware Transoceanic
Sun 11:13:00 PM 29.6011 -37.0646 59° Northeast 533 613 37,000  Level FlightAware Transoceanic
Sun 11:14:00 PM 29.6757 -36.9226 59° Northeast 533 613 37,000  Level FlightAware Transoceanic
Sun 11:15:00 PM 29.7502 -36.7803 59° Northeast 533 613 37,000  Level FlightAware Transoceanic
Sun 11:16:00 PM 29.8245 -36.6378 59° Northeast 533 613 37,000  Level FlightAware Transoceanic
Sun 11:17:00 PM 29.8987 -36.4951 59° Northeast 533 613 37,000  Level FlightAware Transoceanic
Sun 11:18:00 PM 29.9727 -36.3522 59° Northeast 533 613 37,000  Level FlightAware Transoceanic
Sun 11:19:00 PM 30.0466 -36.2091 59° Northeast 533 613 37,000  Level FlightAware Transoceanic
Sun 11:20:00 PM 30.1203 -36.0658 59° Northeast 533 613 37,000  Level FlightAware Transoceanic
Sun 11:21:00 PM 30.1938 -35.9222 59° Northeast 533 613 37,000  Level FlightAware Transoceanic
Sun 11:22:00 PM 30.2672 -35.7785 59° Northeast 533 613 37,000  Level FlightAware Transoceanic
Sun 11:23:00 PM 30.3405 -35.6345 60° Northeast 533 613 37,000  Level FlightAware Transoceanic
Sun 11:24:00 PM 30.4135 -35.4903 60° Northeast 533 613 37,000  Level FlightAware Transoceanic
Sun 11:25:00 PM 30.4865 -35.3459 60° Northeast 533 613 37,000  Level FlightAware Transoceanic
Sun 11:26:00 PM 30.5592 -35.2013 60° Northeast 533 613 37,000  Level FlightAware Transoceanic
Sun 11:27:00 PM 30.6318 -35.0565 60° Northeast 533 613 37,000  Level FlightAware Transoceanic
Sun 11:28:00 PM 30.7043 -34.9114 60° Northeast 533 613 37,000  Level FlightAware Transoceanic
Sun 11:29:00 PM 30.7766 -34.7662 60° Northeast 533 613 37,000  Level FlightAware Transoceanic
Sun 11:30:00 PM 30.8487 -34.6207 60° Northeast 533 613 37,000  Level FlightAware Transoceanic
Sun 11:31:00 PM 30.9206 -34.4750 60° Northeast 533 613 37,000  Level FlightAware Transoceanic
Sun 11:32:00 PM 30.9924 -34.3290 60° Northeast 533 613 37,000  Level FlightAware Transoceanic
Sun 11:33:00 PM 31.0641 -34.1829 60° Northeast 533 613 37,000  Level FlightAware Transoceanic
Sun 11:34:00 PM 31.1355 -34.0365 60° Northeast 533 613 37,000  Level FlightAware Transoceanic
Sun 11:35:00 PM 31.2068 -33.8899 60° Northeast 533 613 37,000  Level FlightAware Transoceanic
Sun 11:36:00 PM 31.2780 -33.7431 60° Northeast 533 613 37,000  Level FlightAware Transoceanic
Sun 11:37:00 PM 31.3489 -33.5961 61° Northeast 533 613 37,000  Level FlightAware Transoceanic
Sun 11:38:00 PM 31.4197 -33.4489 61° Northeast 533 613 37,000  Level FlightAware Transoceanic
Sun 11:39:00 PM 31.4903 -33.3014 61° Northeast 533 613 37,000  Level FlightAware Transoceanic
Sun 11:40:00 PM 31.5608 -33.1537 61° Northeast 533 613 37,000  Level FlightAware Transoceanic
Sun 11:41:00 PM 31.6311 -33.0058 61° Northeast 533 613 37,000  Level FlightAware Transoceanic
Sun 11:42:00 PM 31.7012 -32.8576 61° Northeast 533 613 37,000  Level FlightAware Transoceanic
Sun 11:43:00 PM 31.7711 -32.7093 61° Northeast 533 613 37,000  Level FlightAware Transoceanic
Sun 11:44:00 PM 31.8409 -32.5607 61° Northeast 533 613 37,000  Level FlightAware Transoceanic
Sun 11:45:00 PM 31.9105 -32.4119 61° Northeast 533 613 37,000  Level FlightAware Transoceanic
Sun 11:46:00 PM 31.9799 -32.2628 61° Northeast 533 613 37,000  Level FlightAware Transoceanic
Sun 11:47:00 PM 32.0492 -32.1136 61° Northeast 533 613 37,000  Level FlightAware Transoceanic
Sun 11:48:00 PM 32.1183 -31.9641 61° Northeast 533 613 37,000  Level FlightAware Transoceanic
Sun 11:49:00 PM 32.1872 -31.8144 62° Northeast 533 613 37,000  Level FlightAware Transoceanic
Sun 11:50:00 PM 32.2559 -31.6644 62° Northeast 533 613 37,000  Level FlightAware Transoceanic
Sun 11:51:00 PM 32.3245 -31.5142 62° Northeast 533 613 37,000  Level FlightAware Transoceanic
Sun 11:52:00 PM 32.3928 -31.3638 62° Northeast 533 613 37,000  Level FlightAware Transoceanic
Sun 11:53:00 PM 32.4610 -31.2132 62° Northeast 533 613 37,000  Level FlightAware Transoceanic
Sun 11:54:00 PM 32.5290 -31.0624 62° Northeast 533 613 37,000  Level FlightAware Transoceanic
Sun 11:55:00 PM 32.5969 -30.9113 62° Northeast 533 613 37,000  Level FlightAware Transoceanic
Sun 11:56:00 PM 32.6645 -30.7600 62° Northeast 533 613 37,000  Level FlightAware Transoceanic
Sun 11:57:00 PM 32.7320 -30.6084 62° Northeast 533 613 37,000  Level FlightAware Transoceanic
Sun 11:58:00 PM 32.7993 -30.4567 62° Northeast 533 613 37,000  Level FlightAware Transoceanic
Sun 11:59:00 PM 32.8663 -30.3047 62° Northeast 533 613 37,000  Level FlightAware Transoceanic
Mon 12:00:00 AM 32.9333 -30.1525 62° Northeast 533 613 37,000  Level FlightAware Transoceanic
Mon 12:01:00 AM 32.9955 -30.0102 62° Northeast  Level FlightAware Approximate
Mon 12:02:00 AM 33.0577 -29.8678 62° Northeast  Level FlightAware Approximate
Mon 12:03:00 AM 33.0826 -29.9039 44° Northeast  Level FlightAware Approximate
Mon 12:04:00 AM 33.1788 -29.7916 44° Northeast  Level FlightAware Approximate
Mon 12:05:00 AM 33.2750 -29.6789 44° Northeast  Level FlightAware Approximate
Mon 12:06:00 AM 33.3710 -29.5661 44° Northeast  Level FlightAware Approximate
Mon 12:07:00 AM 33.4670 -29.4529 45° Northeast  Level FlightAware Approximate
Mon 12:08:00 AM 33.5629 -29.3396 45° Northeast  Level FlightAware Approximate
Mon 12:09:00 AM 33.6586 -29.2260 45° Northeast  Level FlightAware Approximate
Mon 12:10:00 AM 33.7543 -29.1121 45° Northeast  Level FlightAware Approximate
Mon 12:10:00 AM 34.1620 -28.5660 45° Northeast 547 629 37,000  Level FlightAware ADS-B
Mon 12:11:00 AM 33.8498 -28.9980 45° Northeast  Level FlightAware Approximate
Mon 12:11:05 AM 34.2910 -28.4090 45° Northeast 544 626 37,000  Level FlightAware ADS-B
Mon 12:11:50 AM 34.3630 -28.3220 45° Northeast 540 621 37,000  Level FlightAware ADS-B
Mon 12:12:40 AM 34.4460 -28.2190 46° Northeast 538 619 37,000  Level FlightAware ADS-B
Mon 12:13:25 AM 34.4890 -28.1680 44° Northeast 532 612 37,000  Level FlightAware ADS-B
Mon 12:13:55 AM 34.5740 -28.0640 45° Northeast 531 611 37,000  Level FlightAware ADS-B
Mon 12:14:35 AM 34.6560 -27.9620 46° Northeast 527 606 37,000  Level FlightAware ADS-B
Mon 12:15:20 AM 34.7360 -27.8630 45° Northeast 525 604 37,000  Level FlightAware ADS-B
Mon 12:16:00 AM 34.8040 -27.7790 45° Northeast 521 600 37,000  Level FlightAware ADS-B
Mon 12:16:40 AM 34.8700 -27.6970 46° Northeast 516 594 37,000  Level FlightAware ADS-B
Mon 12:17:25 AM 34.9390 -27.6110 46° Northeast 513 590 37,000  Level FlightAware ADS-B
Mon 12:18:05 AM 35.0060 -27.5280 45° Northeast 512 589 37,000  Level FlightAware ADS-B
Mon 12:18:45 AM 35.0670 -27.4510 46° Northeast 512 589 37,000  Level FlightAware ADS-B
Mon 12:19:40 AM 35.1500 -27.3480 45° Northeast 512 589 37,000  Level FlightAware ADS-B
Mon 12:20:20 AM 35.2280 -27.2490 46° Northeast 512 589 37,000  Level FlightAware ADS-B
Mon 12:21:10 AM 35.3120 -27.1430 46° Northeast 512 589 37,000  Level FlightAware ADS-B
Mon 12:21:50 AM 35.3740 -27.0650 46° Northeast 511 588 37,000  Level FlightAware ADS-B
Mon 12:22:30 AM 35.4300 -26.9930 46° Northeast 509 586 37,000  Level FlightAware ADS-B
Mon 12:23:15 AM 35.5010 -26.9040 46° Northeast 509 586 37,000  Level FlightAware ADS-B
Mon 12:24:00 AM 35.5860 -26.7950 46° Northeast 504 580 37,000  Level FlightAware ADS-B
Mon 12:24:40 AM 35.6440 -26.7210 46° Northeast 502 578 37,000  Level FlightAware ADS-B
Mon 12:25:20 AM 35.7160 -26.6300 46° Northeast 496 571 37,000  Level FlightAware ADS-B
Mon 12:26:05 AM 35.7800 -26.5460 47° Northeast 495 570 37,000  Level FlightAware ADS-B
Mon 12:26:45 AM 35.8410 -26.4690 46° Northeast 494 568 37,000  Level FlightAware ADS-B
Mon 12:27:30 AM 35.9220 -26.3640 46° Northeast 493 567 37,000  Level FlightAware ADS-B
Mon 12:28:05 AM 35.9610 -26.3130 47° Northeast 492 566 37,000  Level FlightAware ADS-B
Mon 12:28:50 AM 36.0390 -26.2110 47° Northeast 490 564 37,000  Level FlightAware ADS-B
Mon 12:29:25 AM 36.0870 -26.1500 46° Northeast 489 563 37,000  Level FlightAware ADS-B
Mon 12:30:15 AM 36.1570 -26.0580 47° Northeast 488 562 37,000  Level FlightAware ADS-B
Mon 12:31:00 AM 36.2500 -25.9370 46° Northeast 486 559 37,000  Level FlightAware ADS-B
Mon 12:31:40 AM 36.3130 -25.8540 47° Northeast 486 559 37,000  Level FlightAware ADS-B
Mon 12:32:20 AM 36.3740 -25.7740 47° Northeast 486 559 37,000  Level FlightAware ADS-B
Mon 12:33:05 AM 36.4430 -25.6830 47° Northeast 484 557 37,000  Level FlightAware ADS-B
Mon 12:33:45 AM 36.5030 -25.6030 47° Northeast 481 554 37,000  Level FlightAware ADS-B
Mon 12:34:25 AM 36.5530 -25.5380 46° Northeast 482 555 37,000  Level FlightAware ADS-B
Mon 12:35:10 AM 36.6290 -25.4360 47° Northeast 481 554 37,000  Level FlightAware ADS-B
Mon 12:35:50 AM 36.6940 -25.3490 47° Northeast 480 552 37,000 212 Level FlightAware ADS-B
Mon 12:36:35 AM 36.7570 -25.2650 47° Northeast 486 559 37,300 706 Climbing FlightAware ADS-B
Mon 12:37:15 AM 36.8240 -25.1750 47° Northeast 485 558 38,000 525 Climbing FlightAware ADS-B
Mon 12:37:55 AM 36.8850 -25.0930 47° Northeast 482 555 38,000  Level FlightAware ADS-B
Mon 12:38:40 AM 36.9530 -25.0020 47° Northeast 478 550 38,000  Level FlightAware ADS-B
Mon 12:39:20 AM 37.0100 -24.9180 50° Northeast 476 548 38,000  Level FlightAware ADS-B
Mon 12:40:05 AM 37.0710 -24.8250 51° Northeast 475 547 38,000  Level FlightAware ADS-B
Mon 12:40:45 AM 37.1160 -24.7540 52° Northeast 476 548 38,000  Level FlightAware ADS-B
Mon 12:41:25 AM 37.1790 -24.6560 51° Northeast 476 548 38,000  Level FlightAware ADS-B
Mon 12:42:10 AM 37.2220 -24.5890 51° Northeast 477 549 38,000  Level FlightAware ADS-B
Mon 12:42:50 AM 37.3000 -24.4660 51° Northeast 478 550 38,000  Level FlightAware ADS-B
Mon 12:43:35 AM 37.3570 -24.3770 51° Northeast 480 552 38,000  Level FlightAware ADS-B
Mon 12:44:15 AM 37.4170 -24.2820 51° Northeast 481 554 38,000  Level FlightAware ADS-B
Mon 12:44:55 AM 37.4730 -24.1940 51° Northeast 483 556 38,000  Level FlightAware ADS-B
Mon 12:45:30 AM 37.5190 -24.1210 52° Northeast 484 557 38,000  Level FlightAware ADS-B
Mon 12:46:20 AM 37.5770 -24.0280 52° Northeast 485 558 38,000  Level FlightAware ADS-B
Mon 12:47:00 AM 37.6400 -23.9270 52° Northeast 486 559 38,000  Level FlightAware ADS-B
Mon 12:47:45 AM 37.7070 -23.8210 51° Northeast 487 560 38,000  Level FlightAware ADS-B
Mon 12:48:30 AM 37.7710 -23.7190 52° Northeast 487 560 38,000  Level FlightAware ADS-B
Mon 12:49:15 AM 37.8170 -23.6450 52° Northeast 486 559 38,000  Level FlightAware ADS-B
Mon 12:49:55 AM 37.8740 -23.5520 52° Northeast 487 560 38,000  Level FlightAware ADS-B
Mon 12:50:40 AM 37.9510 -23.4290 52° Northeast 487 560 38,000  Level FlightAware ADS-B
Mon 12:51:40 AM 38.0300 -23.3010 52° Northeast 488 562 38,000  Level FlightAware ADS-B
Mon 12:52:15 AM 38.0710 -23.2330 53° Northeast 488 562 38,000  Level FlightAware ADS-B
Mon 12:53:20 AM 38.1610 -23.0860 52° Northeast 486 559 38,000  Level FlightAware ADS-B
Mon 12:54:10 AM 38.2370 -22.9610 52° Northeast 482 555 38,000  Level FlightAware ADS-B
Mon 12:55:05 AM 38.2920 -22.8720 52° Northeast 479 551 38,000  Level FlightAware ADS-B
Mon 12:55:55 AM 38.3810 -22.7250 52° Northeast 477 549 38,000  Level FlightAware ADS-B
Mon 12:56:35 AM 38.4280 -22.6470 52° Northeast 475 547 38,000  Level FlightAware ADS-B
Mon 12:57:30 AM 38.5070 -22.5160 52° Northeast 470 541 38,000  Level FlightAware ADS-B
Mon 12:58:15 AM 38.5600 -22.4260 53° Northeast 469 540 38,000  Level FlightAware ADS-B
Mon 12:58:55 AM 38.6070 -22.3480 52° Northeast 467 537 38,000  Level FlightAware ADS-B
Mon 12:59:40 AM 38.6620 -22.2580 52° Northeast 467 537 38,000  Level FlightAware ADS-B
Mon 01:00:20 AM 38.7070 -22.1830 52° Northeast 467 537 38,000  Level FlightAware ADS-B
Mon 01:01:00 AM 38.7530 -22.1090 51° Northeast 467 537 38,000  Level FlightAware ADS-B
Mon 01:01:40 AM 38.7980 -22.0350 52° Northeast 467 537 38,000  Level FlightAware ADS-B
Mon 01:03:55 AM 38.9860 -21.7070 52° Northeast 462 532 38,000  Level FlightAware ADS-B
Mon 01:04:00 AM 38.9911 -21.7167 52° Northeast  Level FlightAware Approximate
Mon 01:04:40 AM 39.0380 -21.6170 53° Northeast 462 532 38,000  Level FlightAware ADS-B
Mon 01:05:30 AM 39.0930 -21.5240 53° Northeast 462 532 38,000  Level FlightAware ADS-B
Mon 01:06:10 AM 39.1370 -21.4490 53° Northeast 462 532 38,000  Level FlightAware ADS-B
Mon 01:06:50 AM 39.1810 -21.3740 53° Northeast 462 532 38,000  Level FlightAware ADS-B
Mon 01:07:30 AM 39.2240 -21.2990 53° Northeast 462 532 38,000  Level FlightAware ADS-B
Mon 01:08:10 AM 39.2680 -21.2240 53° Northeast 462 532 38,000  Level FlightAware ADS-B
Mon 01:09:00 AM 39.3230 -21.1300 53° Northeast 462 532 38,000  Level FlightAware ADS-B
Mon 01:09:40 AM 39.3660 -21.0550 53° Northeast 462 532 38,000  Level FlightAware ADS-B
Mon 01:10:20 AM 39.4100 -20.9800 53° Northeast 462 532 38,000  Level FlightAware ADS-B
Mon 01:11:00 AM 39.4540 -20.9050 53° Northeast 462 532 38,000  Level FlightAware ADS-B
Mon 01:11:50 AM 39.5090 -20.8110 53° Northeast 462 532 38,000  Level FlightAware ADS-B
Mon 01:12:30 AM 39.5520 -20.7360 53° Northeast 462 532 38,000  Level FlightAware ADS-B
Mon 01:13:10 AM 39.5960 -20.6610 53° Northeast 462 532 38,000  Level FlightAware ADS-B
Mon 01:13:50 AM 39.6400 -20.5850 53° Northeast 462 532 38,000  Level FlightAware ADS-B
Mon 01:16:00 AM 39.8228 -20.2894 51° Northeast  Level FlightAware Approximate
Mon 01:17:00 AM 39.9068 -20.1524 51° Northeast  Level FlightAware Approximate
Mon 01:18:00 AM 39.9908 -20.0151 51° Northeast  Level FlightAware Approximate
Mon 01:19:00 AM 40.0770 -19.8789 50° Northeast  Level FlightAware Approximate
Mon 01:20:00 AM 40.1628 -19.7433 50° Northeast  Level FlightAware Approximate
Mon 01:21:00 AM 40.2485 -19.6074 50° Northeast  Level FlightAware Approximate
Mon 01:22:00 AM 40.3340 -19.4711 51° Northeast  Level FlightAware Approximate
Mon 01:23:00 AM 40.4194 -19.3344 51° Northeast  Level FlightAware Approximate
Mon 01:24:00 AM 40.5046 -19.1975 51° Northeast  Level FlightAware Approximate
Mon 01:25:00 AM 40.5897 -19.0601 51° Northeast  Level FlightAware Approximate
Mon 01:26:00 AM 40.6745 -18.9225 51° Northeast  Level FlightAware Approximate
Mon 01:27:00 AM 40.7593 -18.7844 51° Northeast  Level FlightAware Approximate
Mon 01:28:00 AM 40.8438 -18.6460 51° Northeast  Level FlightAware Approximate
Mon 01:29:00 AM 40.9282 -18.5073 51° Northeast  Level FlightAware Approximate
Mon 01:30:00 AM 41.0124 -18.3682 51° Northeast  Level FlightAware Approximate
Mon 01:31:00 AM 41.0965 -18.2288 51° Northeast  Level FlightAware Approximate
Mon 01:32:00 AM 41.1804 -18.0890 51° Northeast  Level FlightAware Approximate
Mon 01:33:00 AM 41.2641 -17.9488 52° Northeast  Level FlightAware Approximate
Mon 01:34:00 AM 41.3476 -17.8083 52° Northeast  Level FlightAware Approximate
Mon 01:35:00 AM 41.4310 -17.6674 52° Northeast  Level FlightAware Approximate
Mon 01:36:00 AM 41.5142 -17.5262 52° Northeast  Level FlightAware Approximate
Mon 01:37:00 AM 41.5972 -17.3846 52° Northeast  Level FlightAware Approximate
Mon 01:38:00 AM 41.6801 -17.2426 52° Northeast  Level FlightAware Approximate
Mon 01:39:00 AM 41.7628 -17.1003 52° Northeast  Level FlightAware Approximate
Mon 01:40:00 AM 41.8453 -16.9575 52° Northeast  Level FlightAware Approximate
Mon 01:41:00 AM 41.9276 -16.8145 52° Northeast  Level FlightAware Approximate
Mon 01:42:00 AM 42.0097 -16.6710 52° Northeast  Level FlightAware Approximate
Mon 01:43:00 AM 42.0917 -16.5272 52° Northeast  Level FlightAware Approximate
Mon 01:44:00 AM 42.1735 -16.3830 53° Northeast  Level FlightAware Approximate
Mon 01:45:00 AM 42.2551 -16.2385 53° Northeast  Level FlightAware Approximate
Mon 01:46:00 AM 42.3365 -16.0935 53° Northeast  Level FlightAware Approximate
Mon 01:47:00 AM 42.4178 -15.9482 53° Northeast  Level FlightAware Approximate
Mon 01:48:00 AM 42.4988 -15.8026 53° Northeast  Level FlightAware Approximate
Mon 01:49:00 AM 42.5797 -15.6565 53° Northeast  Level FlightAware Approximate
Mon 01:50:00 AM 42.6604 -15.5100 53° Northeast  Level FlightAware Approximate
Mon 01:51:00 AM 42.7409 -15.3632 53° Northeast  Level FlightAware Approximate
Mon 01:52:00 AM 42.8212 -15.2160 53° Northeast  Level FlightAware Approximate
Mon 01:53:00 AM 42.9013 -15.0684 53° Northeast  Level FlightAware Approximate
Mon 01:54:00 AM 42.9813 -14.9205 54° Northeast  Level FlightAware Approximate
Mon 01:55:00 AM 43.0610 -14.7721 54° Northeast  Level FlightAware Approximate
Mon 01:56:00 AM 43.1405 -14.6234 54° Northeast  Level FlightAware Approximate
Mon 01:57:00 AM 43.2199 -14.4743 54° Northeast  Level FlightAware Approximate
Mon 01:58:00 AM 43.2991 -14.3247 54° Northeast  Level FlightAware Approximate
Mon 01:59:00 AM 43.3780 -14.1749 54° Northeast  Level FlightAware Approximate
Mon 02:00:00 AM 43.4568 -14.0246 54° Northeast  Level FlightAware Approximate
Mon 02:01:00 AM 43.5354 -13.8739 54° Northeast  Level FlightAware Approximate
Mon 02:02:00 AM 43.6138 -13.7228 54° Northeast  Level FlightAware Approximate
Mon 02:03:00 AM 43.6919 -13.5713 54° Northeast  Level FlightAware Approximate
Mon 02:04:00 AM 43.7699 -13.4194 55° Northeast  Level FlightAware Approximate
Mon 02:05:00 AM 43.8477 -13.2672 55° Northeast  Level FlightAware Approximate
Mon 02:06:00 AM 43.9253 -13.1145 55° Northeast  Level FlightAware Approximate
Mon 02:07:00 AM 44.0026 -12.9615 55° Northeast  Level FlightAware Approximate
Mon 02:08:00 AM 44.0798 -12.8080 55° Northeast  Level FlightAware Approximate
Mon 02:09:00 AM 44.1567 -12.6542 55° Northeast  Level FlightAware Approximate
Mon 02:10:00 AM 44.2335 -12.4999 55° Northeast  Level FlightAware Approximate
Mon 02:11:00 AM 44.3100 -12.3452 55° Northeast  Level FlightAware Approximate
Mon 02:12:00 AM 44.3864 -12.1902 55° Northeast  Level FlightAware Approximate
Mon 02:13:00 AM 44.4625 -12.0347 56° Northeast  Level FlightAware Approximate
Mon 02:14:00 AM 44.5384 -11.8788 56° Northeast  Level FlightAware Approximate
Mon 02:15:00 AM 44.6141 -11.7226 56° Northeast  Level FlightAware Approximate
Mon 02:16:00 AM 44.6896 -11.5659 56° Northeast  Level FlightAware Approximate
Mon 02:17:00 AM 44.7649 -11.4088 56° Northeast  Level FlightAware Approximate
Mon 02:18:00 AM 44.8399 -11.2513 56° Northeast  Level FlightAware Approximate
Mon 02:18:05 AM 45.2860 -12.4690 56° Northeast 472 543 38,000  Level FlightAware ADS-B
Mon 02:18:45 AM 45.3070 -12.3620 74° East 472 543 38,000  Level FlightAware ADS-B
Mon 02:19:25 AM 45.3340 -12.2250 74° East 473 544 38,000  Level FlightAware ADS-B
Mon 02:20:00 AM 45.3550 -12.1200 74° East 473 544 38,000  Level FlightAware ADS-B
Mon 02:21:20 AM 45.4020 -11.8850 74° East 473 544 38,000  Level FlightAware ADS-B
Mon 02:22:00 AM 45.4250 -11.7670 74° East 473 544 38,000  Level FlightAware ADS-B
Mon 02:22:45 AM 45.4520 -11.6250 75° East 472 543 38,000  Level FlightAware ADS-B
Mon 02:23:20 AM 45.4720 -11.5210 75° East 472 543 38,000  Level FlightAware ADS-B
Mon 02:24:05 AM 45.4960 -11.3950 75° East 472 543 38,000  Level FlightAware ADS-B
Mon 02:24:50 AM 45.5230 -11.2530 75° East 472 543 38,000  Level FlightAware ADS-B
Mon 02:25:30 AM 45.5460 -11.1340 75° East 472 543 38,000  Level FlightAware ADS-B
Mon 02:26:55 AM 45.5920 -10.8850 75° East 473 544 38,000  Level FlightAware ADS-B
Mon 02:27:35 AM 45.6150 -10.7620 75° East 473 544 38,000  Level FlightAware ADS-B
Mon 02:28:20 AM 45.6410 -10.6180 75° East 474 545 38,000  Level FlightAware ADS-B
Mon 02:28:55 AM 45.6600 -10.5160 75° East 473 544 38,000  Level FlightAware ADS-B
Mon 02:29:45 AM 45.6860 -10.3720 75° East 473 544 38,000  Level FlightAware ADS-B
Mon 02:30:25 AM 45.7090 -10.2440 76° East 471 542 38,000  Level FlightAware ADS-B
Mon 02:31:05 AM 45.7290 -10.1310 76° East 471 542 38,000  Level FlightAware ADS-B
Mon 02:31:50 AM 45.7540 -9.9940 75° East 470 541 38,000  Level FlightAware ADS-B
Mon 02:32:25 AM 45.7730 -9.8900 75° East 470 541 38,000  Level FlightAware ADS-B
Mon 02:33:10 AM 45.7970 -9.7490 76° East 468 539 38,000  Level FlightAware ADS-B
Mon 02:34:10 AM 45.8240 -9.5890 76° East 468 539 38,000  Level FlightAware ADS-B
Mon 02:34:50 AM 45.8420 -9.4870 76° East 468 539 38,000  Level FlightAware ADS-B
Mon 02:35:30 AM 45.8600 -9.3840 76° East 468 539 38,000  Level FlightAware ADS-B
Mon 02:36:10 AM 45.8780 -9.2820 76° East 468 539 38,000  Level FlightAware ADS-B
Mon 02:36:50 AM 45.8960 -9.1790 76° East 468 539 38,000  Level FlightAware ADS-B
Mon 02:37:30 AM 45.9130 -9.0760 77° East 468 539 38,000  Level FlightAware ADS-B
Mon 02:38:20 AM 45.9360 -8.9480 75° East 468 539 38,000  Level FlightAware ADS-B
Mon 02:39:00 AM 45.9530 -8.8450 77° East 468 539 38,000  Level FlightAware ADS-B
Mon 02:39:40 AM 45.9710 -8.7430 76° East 468 539 38,000  Level FlightAware ADS-B
Mon 02:40:25 AM 45.9770 -8.4280 88° East 474 545 38,000  Level FlightAware ADS-B
Mon 02:41:15 AM 45.9960 -8.2840 79° East 468 539 38,000  Level FlightAware ADS-B
Mon 02:42:05 AM 46.0150 -8.1540 78° East 468 539 38,000  Level FlightAware ADS-B
Mon 02:42:45 AM 46.0300 -8.0500 78° East 468 539 38,000  Level FlightAware ADS-B
Mon 02:43:25 AM 46.0460 -7.9460 77° East 468 539 38,000  Level FlightAware ADS-B
Mon 02:44:05 AM 46.0610 -7.8430 78° East 468 539 38,000  Level FlightAware ADS-B
Mon 02:44:55 AM 46.0800 -7.7130 78° East 468 539 38,000  Level FlightAware ADS-B
Mon 02:45:35 AM 46.0950 -7.6090 78° East 468 539 38,000  Level FlightAware ADS-B
Mon 02:46:15 AM 46.1110 -7.5050 77° East 468 539 38,000  Level FlightAware ADS-B
Mon 02:46:55 AM 46.1260 -7.4010 78° East 468 539 38,000  Level FlightAware ADS-B
Mon 02:47:35 AM 46.1410 -7.2970 78° East 468 539 38,000  Level FlightAware ADS-B
Mon 02:48:25 AM 46.1600 -7.1680 78° East 468 539 38,000  Level FlightAware ADS-B
Mon 02:49:05 AM 46.1760 -7.0640 77° East 468 539 38,000  Level FlightAware ADS-B
Mon 02:49:45 AM 46.1910 -6.9600 78° East 468 539 38,000  Level FlightAware ADS-B
Mon 02:50:25 AM 46.2060 -6.8560 78° East 468 539 38,000  Level FlightAware ADS-B
Mon 02:53:00 AM 46.3237 -6.3826 70° East  Level FlightAware Approximate
Mon 02:54:00 AM 46.3688 -6.1989 70° East  Level FlightAware Approximate
Mon 02:54:40 AM 46.5420 -5.9510 70° East 38,000  Level FlightAware ADS-B
Mon 02:54:50 AM 46.5470 -5.9260 74° East 454 522 38,000  Level FlightAware ADS-B
Mon 02:55:30 AM 46.5750 -5.8010 72° East 453 521 38,000  Level FlightAware ADS-B
Mon 02:56:20 AM 46.6070 -5.6570 72° East 453 521 38,000  Level FlightAware ADS-B
Mon 02:57:00 AM 46.6310 -5.5450 73° East 453 521 38,000  Level FlightAware ADS-B
Mon 02:57:40 AM 46.6420 -5.4980 71° East 453 521 38,000  Level FlightAware ADS-B
Mon 02:58:20 AM 46.6640 -5.4000 72° East 453 521 38,000  Level FlightAware ADS-B
Mon 02:59:10 AM 46.6910 -5.2760 72° East 453 521 38,000  Level FlightAware ADS-B
Mon 02:59:50 AM 46.7380 -5.0450 73° East 455 524 38,000  Level FlightAware ADS-B
Mon 03:00:32 AM 46.7630 -4.9330 72° East 455 524 38,000  Level FlightAware ADS-B
Mon 03:01:12 AM 46.7870 -4.8110 74° East 452 520 38,000  Level FlightAware ADS-B
Mon 03:01:52 AM 46.8080 -4.7120 73° East 452 520 38,000  Level FlightAware ADS-B
Mon 03:02:42 AM 46.8440 -4.5380 73° East 447 514 38,000  Level FlightAware ADS-B
Mon 03:03:27 AM 46.8690 -4.4170 73° East 447 514 38,000  Level FlightAware ADS-B
Mon 03:04:22 AM 46.9020 -4.2590 73° East 444 511 38,000  Level FlightAware ADS-B
Mon 03:05:07 AM 46.9280 -4.1290 74° East 444 511 38,000  Level FlightAware ADS-B
Mon 03:05:47 AM 46.9510 -4.0120 74° East 444 511 38,000  Level FlightAware ADS-B
Mon 03:06:37 AM 46.9810 -3.8630 74° East 442 509 38,000  Level FlightAware ADS-B
Mon 03:07:12 AM 47.0000 -3.7680 74° East 441 507 38,000  Level FlightAware ADS-B
Mon 03:08:27 AM 47.0440 -3.5480 74° East 440 506 38,000  Level FlightAware ADS-B
Mon 03:09:27 AM 47.0780 -3.3740 74° East 440 506 38,000  Level FlightAware ADS-B
Mon 03:10:07 AM 47.1000 -3.2580 74° East 438 504 38,000  Level FlightAware ADS-B
Mon 03:10:42 AM 47.1170 -3.1690 74° East 436 502 38,000  Level FlightAware ADS-B
Mon 03:11:32 AM 47.1460 -3.0210 74° East 434 499 38,000 -133 Level FlightAware ADS-B
Mon 03:12:12 AM 47.1660 -2.9160 74° East 431 496 37,800 -1,200 Descending FlightAware ADS-B
Mon 03:12:57 AM 47.1920 -2.7770 75° East 441 507 36,300 -1,271 Descending FlightAware ADS-B
Mon 03:13:37 AM 47.2140 -2.6630 74° East 451 519 36,000 -225 Descending FlightAware ADS-B
Mon 03:14:17 AM 47.2360 -2.5430 75° East 450 518 36,000  Level FlightAware ADS-B
Mon 03:15:02 AM 47.2600 -2.4150 75° East 448 516 36,000  Level FlightAware ADS-B
Mon 03:15:42 AM 47.2820 -2.2960 75° East 447 514 36,000 -706 Level FlightAware ADS-B
Mon 03:16:27 AM 47.3060 -2.1630 75° East 439 505 35,000 -1,412 Descending FlightAware ADS-B
Mon 03:17:07 AM 47.3280 -2.0440 75° East 447 514 34,000 -750 Descending FlightAware ADS-B
Mon 03:17:47 AM 47.3490 -1.9260 75° East 442 509 34,000  Level FlightAware ADS-B
Mon 03:18:32 AM 47.3720 -1.8000 75° East 452 520 34,000  Level FlightAware ADS-B
Mon 03:19:12 AM 47.3930 -1.6800 75° East 456 525 34,000  Level FlightAware ADS-B
Mon 03:19:57 AM 47.4170 -1.5420 76° East 455 524 34,000  Level FlightAware ADS-B
Mon 03:20:37 AM 47.4390 -1.4210 75° East 455 524 34,000 -600 Level FlightAware ADS-B
Mon 03:21:17 AM 47.4600 -1.3000 76° East 455 524 33,200 -1,976 Descending FlightAware ADS-B
Mon 03:22:02 AM 47.4820 -1.1710 76° East 442 509 31,200 -2,682 Descending FlightAware ADS-B
Mon 03:22:42 AM 47.5020 -1.0570 75° East 432 497 29,400 -2,824 Descending FlightAware ADS-B
Mon 03:23:27 AM 47.5240 -0.9260 76° East 417 480 27,200 -2,400 Descending FlightAware ADS-B
Mon 03:24:07 AM 47.5350 -0.8160 82° East 415 478 26,000 -900 Descending FlightAware ADS-B
Mon 03:24:47 AM 47.5300 -0.7020 94° East 408 470 26,000  Level FlightAware ADS-B
Mon 03:25:32 AM 47.5240 -0.5820 94° East 400 460 26,000  Level FlightAware ADS-B
Mon 03:26:12 AM 47.5310 -0.4760 84° East 377 434 26,000  Level FlightAware ADS-B
Mon 03:26:52 AM 47.5580 -0.3850 66° East 366 421 26,000  Level FlightAware ADS-B
Mon 03:27:37 AM 47.5950 -0.2830 62° Northeast 359 413 26,000  Level FlightAware ADS-B
Mon 03:28:17 AM 47.6250 -0.2000 62° Northeast 357 411 26,000 -141 Level FlightAware ADS-B
Mon 03:29:02 AM 47.6600 -0.1040 62° Northeast 354 407 25,800 -1,412 Descending FlightAware ADS-B
Mon 03:29:42 AM 47.6900 -0.0200 62° Northeast 355 409 24,000 -2,471 Descending FlightAware ADS-B
Mon 03:30:27 AM 47.7240 0.0750 62° Northeast 350 403 22,300 -2,118 Descending FlightAware ADS-B
Mon 03:31:07 AM 47.7540 0.1600 62° Northeast 364 419 21,000 -1,500 Descending FlightAware ADS-B
Mon 03:31:47 AM 47.7880 0.2560 62° Northeast 365 420 20,300 -706 Descending FlightAware ADS-B
Mon 03:32:32 AM 47.8210 0.3500 62° Northeast 356 410 20,000 -212 Descending FlightAware ADS-B
Mon 03:33:12 AM 47.8490 0.4300 62° Northeast 352 405 20,000  Level FlightAware ADS-B
Mon 03:33:57 AM 47.8870 0.5360 62° Northeast 351 404 20,000 -353 Level FlightAware ADS-B
Mon 03:34:37 AM 47.9170 0.6220 62° Northeast 352 405 19,500 -1,125 Descending FlightAware ADS-B
Mon 03:35:17 AM 47.9470 0.7080 62° Northeast 348 400 18,500 -1,482 Descending FlightAware ADS-B
Mon 03:36:02 AM 47.9790 0.8000 63° Northeast 344 396 17,400 -1,482 Descending FlightAware ADS-B
Mon 03:36:42 AM 48.0080 0.8850 63° Northeast 339 390 16,400 -1,553 Descending FlightAware ADS-B
Mon 03:37:27 AM 48.0410 0.9820 63° Northeast 342 394 15,200 -1,271 Descending FlightAware ADS-B
Mon 03:38:07 AM 48.0700 1.0650 62° Northeast 341 392 14,600 -880 Descending FlightAware ADS-B
Mon 03:38:42 AM 48.0930 1.1330 63° Northeast 344 396 14,100 -918 Descending FlightAware ADS-B
Mon 03:39:32 AM 48.1300 1.2400 63° Northeast 334 384 13,300 -933 Descending FlightAware ADS-B
Mon 03:40:12 AM 48.1590 1.3250 63° Northeast 339 390 12,700 -825 Descending FlightAware ADS-B
Mon 03:40:52 AM 48.1860 1.4050 63° Northeast 346 398 12,200 -918 Descending FlightAware ADS-B
Mon 03:41:37 AM 48.2200 1.5060 63° Northeast 337 388 11,400 -847 Descending FlightAware ADS-B
Mon 03:42:17 AM 48.2530 1.5810 57° Northeast 328 377 11,000 -282 Descending FlightAware ADS-B
Mon 03:43:02 AM 48.3070 1.6400 36° Northeast 328 377 11,000  Level FlightAware ADS-B
Mon 03:43:42 AM 48.3580 1.6900 33° Northeast 328 377 11,000  Level FlightAware ADS-B
Mon 03:44:27 AM 48.4160 1.7490 34° Northeast 333 383 11,000  Level FlightAware ADS-B
Mon 03:45:07 AM 48.4670 1.8010 34° Northeast 330 380 11,000  Level FlightAware ADS-B
Mon 03:45:47 AM 48.5180 1.8540 35° Northeast 331 381 11,000  Level FlightAware ADS-B
Mon 03:46:02 AM 48.5330 1.8750 43° Northeast 332 382 11,000  Level FlightAware ADS-B
Mon 03:46:17 AM 48.5450 1.9070 60° Northeast 332 382 11,000  Level FlightAware ADS-B
Mon 03:46:32 AM 48.5490 1.9380 79° East 333 383 11,000  Level FlightAware ADS-B
Mon 03:47:12 AM 48.5560 2.0310 83° East 332 382 11,000  Level FlightAware ADS-B
Mon 03:47:57 AM 48.5620 2.1370 85° East 331 381 11,000  Level FlightAware ADS-B
Mon 03:48:37 AM 48.5680 2.2230 84° East 332 382 11,000  Level FlightAware ADS-B
Mon 03:49:11 AM 48.5740 2.3111 84° East 334 384 11,000  Level FlightAware ADS-B
Mon 03:50:17 AM 48.5860 2.4500 83° East 298 343 11,000 -509 Level FlightAware ADS-B
Mon 03:50:57 AM 48.6050 2.5220 68° East 291 335 10,100 -1,500 Descending FlightAware ADS-B
Mon 03:51:01 AM 48.6084 2.5364 70° East 291 335 9,900 -1,579 Descending FlightAware ADS-B
Mon 03:51:16 AM 48.6158 2.5651 69° East 290 334 9,600 -1,161 Descending FlightAware ADS-B
Mon 03:51:32 AM 48.6235 2.5956 69° East 285 328 9,300 -938 Descending FlightAware ADS-B
Mon 03:51:48 AM 48.6308 2.6251 69° East 275 316 9,100 -769 Descending FlightAware ADS-B
Mon 03:52:50 AM 48.6564 2.7300 70° East 252 290 8,300 -811 Descending FlightAware ADS-B
Mon 03:53:02 AM 48.6619 2.7495 67° East 249 287 8,100 -1,000 Descending FlightAware ADS-B
Mon 03:53:08 AM 48.6657 2.7575 54° Northeast 249 287 8,000 -600 Descending FlightAware ADS-B
Mon 03:53:12 AM 48.6689 2.7624 45° Northeast 251 289 8,000  Level FlightAware ADS-B
Mon 03:53:18 AM 48.6747 2.7685 35° Northeast 251 289 8,000  Level FlightAware ADS-B
Mon 03:53:22 AM 48.6790 2.7718 27° Northeast 249 287 8,000  Level FlightAware ADS-B
Mon 03:53:30 AM 48.6868 2.7767 23° Northeast 247 284 8,000  Level FlightAware ADS-B
Mon 03:53:45 AM 48.7032 2.7861 21° North 245 282 8,000  Level FlightAware ADS-B
Mon 03:54:01 AM 48.7202 2.7961 21° North 246 283 8,000 -375 Level FlightAware ADS-B
Mon 03:54:17 AM 48.7367 2.8059 21° North 243 280 7,800 -909 Descending FlightAware ADS-B
Mon 03:54:34 AM 48.7541 2.8162 21° North 242 278 7,500 -1,080 Descending FlightAware ADS-B
Mon 03:55:07 AM 48.7830 2.8310 19° North 241 277 6,900 -1,429 Descending FlightAware ADS-B
Mon 03:55:37 AM 48.8120 2.8040 328° Northwest 233 268 6,000 -1,867 Descending FlightAware ADS-B
Mon 03:55:52 AM 48.8135 2.7766 275° West 235 270 5,500 -1,750 Descending FlightAware ADS-B
Mon 03:56:01 AM 48.8099 2.7633 248° West 237 273 5,300 -1,125 Descending FlightAware ADS-B
Mon 03:56:40 AM 48.7847 2.7138 232° Southwest 225 259 4,600 -1,143 Descending FlightAware ADS-B
Mon 03:56:43 AM 48.7836 2.7095 249° West 223 257 4,500 -2,000 Descending FlightAware ADS-B
Mon 03:56:46 AM 48.7824 2.7043 251° West 221 254 4,400 -1,333 Descending FlightAware ADS-B
Mon 03:56:52 AM 48.7808 2.6961 253° West 218 251 4,300 -1,200 Descending FlightAware ADS-B
Mon 03:57:06 AM 48.7772 2.6755 255° West 214 246 4,000 -1,250 Descending FlightAware ADS-B
Mon 03:57:16 AM 48.7746 2.6611 255° West 209 241 3,800 -1,200 Descending FlightAware ADS-B
Mon 03:57:31 AM 48.7709 2.6401 255° West 203 234 3,500 -1,034 Descending FlightAware ADS-B
Mon 03:57:45 AM 48.7676 2.6218 255° West 196 226 3,300 -1,071 Descending FlightAware ADS-B
Mon 03:57:59 AM 48.7644 2.6035 255° West 190 219 3,000 -1,034 Descending FlightAware ADS-B
Mon 03:58:14 AM 48.7608 2.5843 254° West 184 212 2,800 -1,000 Descending FlightAware ADS-B
Mon 03:58:29 AM 48.7574 2.5658 254° West 180 207 2,500 -1,154 Descending FlightAware ADS-B
Mon 03:58:40 AM 48.7551 2.5528 255° West 176 203 2,300 -889 Descending FlightAware ADS-B
Mon 03:58:56 AM 48.7518 2.5349 254° West 167 192 2,100 -938 Descending FlightAware ADS-B
Mon 03:59:12 AM 48.7487 2.5177 255° West 158 182 1,800 -938 Descending FlightAware ADS-B
Mon 03:59:28 AM 48.7456 2.5010 254° West 150 173 1,600 -774 Descending FlightAware ADS-B
Mon 03:59:43 AM 48.7428 2.4857 255° West 147 169 1,400 -774 Descending FlightAware ADS-B
Mon 03:59:59 AM 48.7399 2.4698 255° West 144 166 1,200 -857 Descending FlightAware ADS-B
Mon 04:00:18 AM 48.7367 2.4520 255° West 142 163 900 -828 Descending FlightAware ADS-B
Mon 04:00:57 AM 48.7300 2.4160 254° West 140 161 400 -750 Descending FlightAware ADS-B
Mon 04:01:22 AM 48.7260 2.3940 255° West 136 157 100 -327 Descending FlightAware ADS-B
Mon 04:01:52 AM 48.7220 2.3730 254° West 136 157 100  Level FlightAware ADS-B
Mon 04:04:00 AM 48.7167 2.3667 63° Northeast  Level FlightAware Approximate

Login

Don't have an account? Register now (free) for customized features, flight alerts, and more!